Airfield :
LOGIN :

Register | Disclaimer

   EN    FR    IT 

 










Legend :    VFR   Marginal VFR   IFR   Intensive IFR   Very Intensive IFR
Visi :
Ceiling :
>= 8 km
>= 3000ft
5 to 8 km
1000 to 3000 ft
1500m to 5 km
500 to 1000 ft
800 to 1500m
200 to 500 ft
< 800m
< 200 ft
Symbols :   Thunderstorms  Fog  Heavy snow  Heavy precipitations  Wind > 20 kt
SIGMETs :     Misc.  Thunderstorms  Icing  Turbulence  Mountain Waves  Volcanic Ashes







- Airport Elevation : 74 ft
- IATA code : EIN


EHEH - Eindhoven

CURRENT METAR :
  • 151755Z AUTO 17005KT 140V230 9999 BKN120 15/11 Q1014 BLU VRB03KT CAVOK

EXPIRED METARs :
  • 151725Z AUTO 16003KT 9999 FEW120 16/11 Q1013 BLU VRB03KT CAVOK
  • 151655Z AUTO 19003KT 9999 NCD 19/12 Q1013 BLU 20005KT CAVOK
  • 151625Z AUTO 19005KT 9999 SCT130 21/11 Q1013 BLU 20005KT CAVOK
  • 151555Z AUTO 21004KT 9999 SCT130 23/12 Q1012 BLU 20005KT CAVOK
  • 151525Z AUTO 20005KT 160V220 9999 SCT320 23/12 Q1012 BLU 20010KT CAVOK

TAF TAF EHEH
Valid from the 15 at 12:00 until the 16 at 18:00 UTC


151100Z 1512/1618 20009KT CAVOK
BECMG 1517/1519 VRB02KT
BECMG 1609/1612 13006KT
No reported NOTAMs for that airfield.



MET'MAP, your aeronautical weather chart ! - Copyright ORBIFLY December 2007 - Disclaimer

ORBIFLY MET'MAP TEAM :

Programming & Development : Alexandra Zaïnal
Concept & Development : Baudouin d'Aumeries
Co-Development & Prog : Marc-Olivier Méhu
Technical & hardware support : Manuel Goepfert

Contact : metmap@orbifly.com




SOURCES & CREDITS :

   NOAA